Bogalusa, Louisiana
Current Conditions -  °F | °C
As of 3:55 PM on Friday 24 Oct 2014 (Local Time) from KBXA Reporting Station
NA  
Wind Chill: 78°   Ceiling: NA
Heat Index: 78°   Visibility: NA
Dew Point: 41°   Wind: 10mph
Humidity: 27%   Direction: 20°NNE
Pressure: 30.06"   Gusts: NA
Location:  30.79°N, 89.86°W
Report Text: KBXA 242055Z AUTO 02009KT 25/05 A3006 RMK AO2 T02530050 PWINO
Loading
Personal Weather Stations






























Interactive Weather Map
Tropical Storm Tracking
New forecast layout! Learn more

10-Day Weather Forecast

Advertisements
Track Severe Weather on mobile